Impacts TAF Board
For situational awareness. Not to be used for flight planning purposes.
IDs:

KSSF - San Antonio/Stinson, TX, US

Issued at 1132 UTC 13 Dec 2019
Updated at 1427 UTC 13 Dec 2019
Potential Impact None Slight Moderate High
Time<<14/03Z 14/04Z 14/05Z 14/06Z 14/07Z 14/08Z 14/09Z 14/10Z 14/11Z 14/12Z 14/13Z 14/14Z 14/15Z>>
Type PRVL PRVL PRVL PRVL PRVL PRVL PRVL PRVL PRVL
VIS >6 >6 >6 >6 >6 >6 >6 >6 >6
CIG -- -- -- -- -- -- -- -- --
Cover SKC SKC SKC SKC SKC SKC SKC SKC SKC
FltCat VFR VFR VFR VFR VFR VFR VFR VFR VFR
WX -- -- -- -- -- -- -- -- --
WDir 300 300 300 300 300 300 300 300 300
WSpd 4 4 4 4 4 4 4 4 4
WGst -- -- -- -- -- -- -- -- --
Raw TAF
KSSF 131132Z 1312/1412 27005KT P6SM FEW250
  FM132000 28012KT P6SM SKC
  FM140000 30004KT P6SM SKC


METAR Board
Radar Display
Forecast Discussion
For situational awareness. Not to be used for flight planning purposes.